Time;durP1;ratioP1;P1;durP2;ratioP2;P2;SDS_P1;SDS_P2;PMS_P1;PMS_P2;Temp;Humidity;BMP_temperature;BMP_pressure;BME280_temperature;BME280_humidity;BME280_pressure;Samples;Min_cycle;Max_cycle;Signal;HPM_P1;HPM_P2
2020/12/25 00:01:52;;;;;;;1.70;1.43;;;;;;;7.76;100.00;97268.09;5111646;28;20210;-68
2020/12/25 00:04:18;;;;;;;3.80;1.50;;;;;;;7.79;100.00;97273.72;5123863;28;20651;-67
2020/12/25 00:06:48;;;;;;;1.87;1.53;;;;;;;7.76;100.00;97274.41;5114225;28;20234;-66
2020/12/25 00:09:14;;;;;;;1.73;1.40;;;;;;;7.74;100.00;97273.13;5114006;28;20281;-66
2020/12/25 00:11:40;;;;;;;1.47;1.30;;;;;;;7.75;100.00;97267.31;5114034;28;20720;-67
2020/12/25 00:14:05;;;;;;;1.70;1.27;;;;;;;7.74;100.00;97270.38;5112652;28;20208;-67
2020/12/25 00:16:32;;;;;;;2.73;1.40;;;;;;;7.77;100.00;97270.50;5113991;28;20251;-66
2020/12/25 00:18:58;;;;;;;1.80;1.50;;;;;;;7.74;100.00;97276.69;5114200;28;20204;-65
2020/12/25 00:21:25;;;;;;;1.80;1.50;;;;;;;7.76;100.00;97277.16;5114225;28;20231;-67
2020/12/25 00:23:51;;;;;;;1.37;1.27;;;;;;;7.77;100.00;97286.97;5113367;28;20226;-68
2020/12/25 00:26:27;;;;;;;1.30;1.20;;;;;;;7.74;100.00;97276.69;5113383;28;20653;-66
2020/12/25 00:28:56;;;;;;;3.97;1.30;;;;;;;7.74;100.00;97276.69;5113887;28;20357;-68
2020/12/25 00:31:23;;;;;;;2.07;1.47;;;;;;;7.73;100.00;97277.84;5115012;28;20674;-65
2020/12/25 00:33:52;;;;;;;1.83;1.40;;;;;;;7.66;100.00;97285.03;5103450;28;20215;-65
2020/12/25 00:36:23;;;;;;;1.33;1.23;;;;;;;7.67;100.00;97284.69;5125039;28;20239;-69
2020/12/25 00:38:49;;;;;;;1.60;1.50;;;;;;;7.59;100.00;97287.53;5121663;28;20298;-68
2020/12/25 00:41:15;;;;;;;1.50;1.40;;;;;;;7.52;100.00;97279.81;5113869;28;20199;-67
2020/12/25 00:43:41;;;;;;;2.03;1.50;;;;;;;7.51;100.00;97281.00;5095561;28;20620;-65
2020/12/25 00:46:14;;;;;;;1.23;1.13;;;;;;;7.36;100.00;97281.63;5114635;28;20277;-66
2020/12/25 00:48:41;;;;;;;1.43;1.33;;;;;;;7.59;100.00;97277.34;5114455;28;20211;-65
2020/12/25 00:51:22;;;;;;;1.40;1.30;;;;;;;7.52;100.00;97277.09;5114197;28;20207;-66
2020/12/25 00:53:49;;;;;;;1.73;1.30;;;;;;;7.55;100.00;97286.59;5113807;28;20242;-66
2020/12/25 00:56:17;;;;;;;3.83;1.20;;;;;;;7.55;100.00;97290.16;5113900;28;20657;-66
2020/12/25 00:58:44;;;;;;;1.73;1.30;;;;;;;7.24;100.00;97289.00;5114273;28;20637;-64
2020/12/25 01:33:59;;;;;;;2.37;1.17;;;;;;;6.99;100.00;97327.28;5117746;27;20928;-68
2020/12/25 01:36:26;;;;;;;1.03;0.93;;;;;;;6.95;100.00;97336.50;5109591;28;20227;-67
2020/12/25 01:38:52;;;;;;;0.90;0.90;;;;;;;6.89;100.00;97332.34;5109344;28;20208;-67
2020/12/25 01:41:18;;;;;;;1.67;1.57;;;;;;;7.01;100.00;97341.47;5109920;28;20200;-67
2020/12/25 01:43:44;;;;;;;1.50;0.93;;;;;;;7.01;100.00;97332.41;5108910;28;20659;-67
2020/12/25 01:46:15;;;;;;;1.97;0.90;;;;;;;6.90;100.00;97337.50;5109608;28;20224;-67
2020/12/25 01:48:44;;;;;;;1.27;1.00;;;;;;;6.91;100.00;97341.06;5109496;28;20286;-66
2020/12/25 01:51:14;;;;;;;1.47;0.87;;;;;;;6.94;100.00;97337.63;5109404;28;20309;-65
2020/12/25 01:53:42;;;;;;;0.70;0.70;;;;;;;6.88;100.00;97341.69;5109684;28;20220;-65
2020/12/25 01:56:09;;;;;;;1.07;0.90;;;;;;;6.82;100.00;97343.84;5109628;28;20224;-65
2020/12/25 01:58:39;;;;;;;3.77;1.03;;;;;;;6.89;100.00;97343.31;5109634;28;20232;-65
2020/12/25 02:01:06;;;;;;;1.50;0.93;;;;;;;6.82;100.00;97352.09;5110452;28;20199;-65
2020/12/25 02:03:32;;;;;;;1.83;1.00;;;;;;;6.67;100.00;97346.34;5108977;28;20232;-65
2020/12/25 02:05:58;;;;;;;1.37;0.80;;;;;;;6.51;100.00;97345.31;5108166;28;20739;-65
2020/12/25 02:08:27;;;;;;;1.03;0.80;;;;;;;6.65;100.00;97345.88;5111401;28;20246;-64
2020/12/25 02:10:53;;;;;;;0.80;0.80;;;;;;;6.82;100.00;97354.03;5113025;28;20271;-64
2020/12/25 02:13:22;;;;;;;0.90;0.90;;;;;;;6.86;100.00;97354.97;5119391;28;20318;-67
2020/12/25 02:15:48;;;;;;;1.87;0.87;;;;;;;6.73;100.00;97351.31;5125438;28;20546;-66
2020/12/25 02:18:14;;;;;;;0.90;0.90;;;;;;;6.74;100.00;97347.44;5121516;28;20208;-66
2020/12/25 02:20:43;;;;;;;1.00;1.00;;;;;;;6.65;100.00;97348.63;5110912;28;20735;-65
2020/12/25 02:23:09;;;;;;;1.10;1.00;;;;;;;6.69;100.00;97344.91;5110165;28;20294;-65
2020/12/25 02:25:36;;;;;;;1.57;1.47;;;;;;;6.65;100.00;97343.13;5110201;28;20228;-65
2020/12/25 02:28:02;;;;;;;1.30;1.10;;;;;;;6.35;100.00;97345.06;5110212;28;20246;-65
2020/12/25 02:30:28;;;;;;;1.10;1.00;;;;;;;6.56;100.00;97351.41;5108952;28;20262;-65
2020/12/25 02:32:54;;;;;;;1.50;1.40;;;;;;;6.54;100.00;97364.66;5109907;28;20223;-64
2020/12/25 02:35:20;;;;;;;1.47;1.37;;;;;;;6.49;100.00;97358.56;5108718;28;20293;-65
2020/12/25 02:37:46;;;;;;;1.67;1.20;;;;;;;6.43;100.00;97357.13;5110217;28;20208;-65
2020/12/25 02:40:12;;;;;;;3.20;1.40;;;;;;;6.63;100.00;97356.38;5109946;28;20295;-65
2020/12/25 02:42:38;;;;;;;1.23;1.13;;;;;;;6.51;100.00;97370.00;5110244;28;20628;-65
2020/12/25 02:45:06;;;;;;;1.40;1.30;;;;;;;6.70;100.00;97367.63;5096271;28;20319;-65
2020/12/25 02:47:32;;;;;;;1.63;1.33;;;;;;;6.67;100.00;97366.34;5096085;28;20216;-66
2020/12/25 02:49:58;;;;;;;1.20;1.10;;;;;;;6.64;100.00;97367.00;5095925;28;20673;-65
2020/12/25 02:52:24;;;;;;;1.93;1.40;;;;;;;6.69;100.00;97360.53;5095428;28;20258;-65
2020/12/25 02:54:50;;;;;;;1.77;1.40;;;;;;;6.46;100.00;97361.97;5094853;28;20209;-64
2020/12/25 02:57:17;;;;;;;1.90;1.40;;;;;;;6.51;100.00;97361.75;5095495;28;20204;-65
2020/12/25 02:59:45;;;;;;;2.00;1.63;;;;;;;6.42;100.00;97364.56;5104065;28;20205;-65
2020/12/25 03:02:14;;;;;;;1.50;1.40;;;;;;;6.36;100.00;97374.09;5106642;28;20228;-66
2020/12/25 03:04:40;;;;;;;2.17;1.17;;;;;;;6.24;100.00;97368.47;5095286;28;20246;-66
2020/12/25 03:07:07;;;;;;;1.43;1.33;;;;;;;6.20;100.00;97375.75;5095400;28;20273;-65
2020/12/25 03:09:33;;;;;;;3.03;1.53;;;;;;;6.23;100.00;97377.84;5094575;28;20272;-64
2020/12/25 03:12:00;;;;;;;1.87;1.50;;;;;;;6.18;100.00;97384.28;5094503;28;20209;-66
2020/12/25 03:14:27;;;;;;;1.57;1.47;;;;;;;6.20;100.00;97386.72;5094925;28;20208;-65
2020/12/25 03:16:53;;;;;;;3.03;1.53;;;;;;;6.15;100.00;97395.91;5095058;28;20235;-66
2020/12/25 03:19:19;;;;;;;1.80;1.70;;;;;;;5.74;100.00;97392.91;5095316;28;20212;-66
2020/12/25 03:21:45;;;;;;;2.60;1.70;;;;;;;5.72;100.00;97397.09;5095516;28;20209;-66
2020/12/25 03:24:12;;;;;;;1.80;1.70;;;;;;;5.58;100.00;97407.41;5095542;28;20677;-67
2020/12/25 03:26:38;;;;;;;2.47;2.27;;;;;;;5.39;100.00;97415.13;5096552;28;20228;-67
2020/12/25 03:29:04;;;;;;;2.10;1.90;;;;;;;5.56;100.00;97426.09;5096257;28;20243;-67
2020/12/25 03:31:33;;;;;;;2.53;2.20;;;;;;;5.18;100.00;97422.38;5096086;28;20236;-67
2020/12/25 03:33:59;;;;;;;2.60;2.40;;;;;;;5.54;100.00;97423.69;5095780;28;20319;-66
2020/12/25 03:36:25;;;;;;;2.07;1.97;;;;;;;5.57;100.00;97425.75;5095458;28;20274;-65
2020/12/25 03:38:51;;;;;;;2.80;2.60;;;;;;;5.82;100.00;97422.19;5094982;28;20227;-65
2020/12/25 03:41:17;;;;;;;2.60;2.40;;;;;;;5.83;100.00;97437.53;5094734;28;20287;-66
2020/12/25 03:43:43;;;;;;;2.70;2.50;;;;;;;5.73;100.00;97439.78;5093896;28;20239;-65
2020/12/25 03:46:09;;;;;;;3.10;2.80;;;;;;;5.69;100.00;97452.50;5094721;28;20273;-65
2020/12/25 03:48:35;;;;;;;3.00;2.70;;;;;;;5.49;100.00;97455.88;5093810;28;20295;-65
2020/12/25 03:51:01;;;;;;;2.87;2.63;;;;;;;5.55;100.00;97458.13;5100275;28;20209;-65
2020/12/25 03:53:27;;;;;;;3.80;3.23;;;;;;;5.22;100.00;97456.16;5101168;28;20278;-65
2020/12/25 03:55:53;;;;;;;3.43;3.13;;;;;;;5.28;100.00;97469.34;5094838;28;20641;-65
2020/12/25 03:58:19;;;;;;;4.63;2.83;;;;;;;5.29;100.00;97473.72;5093927;28;20204;-67
2020/12/25 04:00:45;;;;;;;3.50;3.20;;;;;;;5.12;100.00;97470.94;5093454;28;20204;-67
2020/12/25 04:03:14;;;;;;;3.30;3.00;;;;;;;4.93;100.00;97479.41;5092929;28;20204;-66
2020/12/25 04:05:40;;;;;;;3.27;2.97;;;;;;;5.12;100.00;97476.41;5093045;28;20271;-66
2020/12/25 04:08:07;;;;;;;3.40;2.87;;;;;;;5.11;100.00;97488.44;5091982;28;20688;-66
2020/12/25 04:10:33;;;;;;;3.30;3.00;;;;;;;5.01;100.00;97488.75;5092467;28;20673;-66
2020/12/25 04:13:02;;;;;;;5.13;3.37;;;;;;;4.88;100.00;97497.88;5092712;28;20231;-65
2020/12/25 04:15:28;;;;;;;3.60;3.30;;;;;;;5.02;100.00;97504.84;5093058;28;20224;-66
2020/12/25 04:17:54;;;;;;;4.97;3.37;;;;;;;5.02;100.00;97506.75;5093094;28;20204;-66
2020/12/25 04:20:20;;;;;;;4.07;3.67;;;;;;;5.10;100.00;97511.47;5093035;28;20254;-66
2020/12/25 04:22:46;;;;;;;4.50;3.80;;;;;;;4.92;100.00;97516.09;5091352;28;20689;-66
2020/12/25 04:25:12;;;;;;;3.80;3.50;;;;;;;5.07;100.00;97514.84;5092776;28;20232;-66
2020/12/25 04:27:38;;;;;;;4.87;3.70;;;;;;;4.93;100.00;97516.88;5092585;28;20227;-66
2020/12/25 04:30:04;;;;;;;5.00;3.40;;;;;;;4.88;100.00;97511.53;5094329;28;20234;-67
2020/12/25 04:32:30;;;;;;;4.23;3.77;;;;;;;4.87;100.00;97518.94;5093839;28;20772;-66
2020/12/25 04:35:04;;;;;;;3.70;3.40;;;;;;;5.15;100.00;97522.25;5092655;28;20229;-66
2020/12/25 04:37:30;;;;;;;3.70;3.20;;;;;;;5.08;100.00;97524.66;5092705;28;20204;-66
2020/12/25 04:39:56;;;;;;;3.17;2.87;;;;;;;5.13;100.00;97519.03;5092544;28;20267;-68
2020/12/25 04:42:25;;;;;;;3.60;3.30;;;;;;;5.06;100.00;97529.63;5092227;28;20935;-67
2020/12/25 04:44:51;;;;;;;3.37;2.97;;;;;;;4.74;100.00;97530.00;5091193;28;20291;-67
2020/12/25 04:47:17;;;;;;;4.07;3.67;;;;;;;4.89;100.00;97532.31;5092330;28;20653;-66
2020/12/25 04:49:43;;;;;;;3.20;2.90;;;;;;;5.04;100.00;97538.16;5092607;28;20204;-66
2020/12/25 04:52:10;;;;;;;3.30;3.00;;;;;;;5.03;100.00;97533.81;5092305;28;20206;-66
2020/12/25 04:54:36;;;;;;;3.20;2.90;;;;;;;4.70;100.00;97534.47;5092051;28;20288;-66
2020/12/25 04:57:02;;;;;;;2.93;2.63;;;;;;;5.08;100.00;97541.88;5092381;28;20244;-66
2020/12/25 04:59:30;;;;;;;2.77;2.53;;;;;;;5.09;100.00;97545.41;5092151;28;20295;-66
2020/12/25 05:01:59;;;;;;;2.70;2.43;;;;;;;4.96;100.00;97538.91;5092396;28;20646;-66
2020/12/25 05:04:27;;;;;;;2.40;2.03;;;;;;;4.85;100.00;97547.72;5091525;28;20658;-66
2020/12/25 05:06:55;;;;;;;2.60;2.10;;;;;;;4.99;100.00;97545.69;5091760;28;20224;-66
2020/12/25 05:09:23;;;;;;;2.30;2.10;;;;;;;5.01;100.00;97548.91;5092049;28;20295;-66
2020/12/25 05:11:55;;;;;;;2.20;2.00;;;;;;;5.16;100.00;97543.03;5094385;28;20588;-66
2020/12/25 05:14:44;;;;;;;2.20;1.97;;;;;;;4.85;100.00;97545.78;5099251;28;20291;-66
2020/12/25 05:17:11;;;;;;;2.00;1.80;;;;;;;5.13;100.00;97557.31;5092344;28;20209;-66
2020/12/25 05:19:40;;;;;;;2.60;2.00;;;;;;;5.11;100.00;97559.56;5093696;28;20602;-66
2020/12/25 05:22:07;;;;;;;2.37;1.93;;;;;;;4.86;100.00;97574.75;5092191;28;20247;-66
2020/12/25 05:24:38;;;;;;;1.70;1.60;;;;;;;4.69;100.00;97579.31;5091686;28;20354;-65
2020/12/25 05:27:10;;;;;;;1.73;1.63;;;;;;;4.97;100.00;97586.19;5090797;28;20291;-66
2020/12/25 05:29:37;;;;;;;1.47;1.37;;;;;;;4.83;100.00;97583.56;5090766;28;20208;-66
2020/12/25 05:32:05;;;;;;;2.17;1.60;;;;;;;4.75;100.00;97586.25;5091669;28;20294;-66
2020/12/25 05:34:33;;;;;;;2.63;1.50;;;;;;;4.78;100.00;97596.56;5092137;28;20606;-65
2020/12/25 05:37:05;;;;;;;2.43;1.90;;;;;;;4.60;100.00;97601.09;5093469;28;20261;-65
2020/12/25 05:39:34;;;;;;;2.13;1.80;;;;;;;4.62;100.00;97595.31;5092769;28;20204;-66
2020/12/25 05:42:02;;;;;;;1.60;1.50;;;;;;;4.68;100.00;97607.75;5091927;28;20216;-68
2020/12/25 05:44:30;;;;;;;2.03;1.80;;;;;;;4.69;100.00;97598.44;5091250;28;20295;-67
2020/12/25 05:46:58;;;;;;;1.87;1.60;;;;;;;4.69;100.00;97620.31;5091486;28;20291;-66
2020/12/25 05:49:26;;;;;;;1.80;1.70;;;;;;;4.63;100.00;97616.09;5091891;28;20291;-66
2020/12/25 05:51:53;;;;;;;1.80;1.70;;;;;;;4.75;100.00;97622.59;5091681;28;20615;-66
2020/12/25 05:54:24;;;;;;;1.77;1.67;;;;;;;4.68;100.00;97624.13;5091452;28;20315;-66
2020/12/25 05:56:52;;;;;;;1.60;1.50;;;;;;;4.94;100.00;97630.56;5090477;28;20323;-66
2020/12/25 05:59:30;;;;;;;1.70;1.43;;;;;;;4.79;100.00;97629.03;5092570;28;20204;-66
2020/12/25 06:02:02;;;;;;;1.30;1.20;;;;;;;5.06;100.00;97630.78;5092959;28;20714;-66
2020/12/25 06:04:31;;;;;;;1.27;1.17;;;;;;;4.91;100.00;97632.00;5090068;28;20205;-67
2020/12/25 06:06:59;;;;;;;1.70;1.40;;;;;;;4.82;100.00;97630.31;5091595;28;20705;-66
2020/12/25 06:09:30;;;;;;;1.37;1.27;;;;;;;4.79;100.00;97639.97;5090394;28;20209;-66
2020/12/25 06:11:57;;;;;;;1.53;1.43;;;;;;;4.78;100.00;97651.22;5090714;28;20231;-66
2020/12/25 06:14:27;;;;;;;1.30;1.20;;;;;;;4.85;100.00;97651.59;5091496;28;20284;-66
2020/12/25 06:16:58;;;;;;;1.20;1.10;;;;;;;4.80;100.00;97670.88;5091413;28;20228;-66
2020/12/25 06:19:49;;;;;;;1.40;1.30;;;;;;;4.84;100.00;97675.38;5092779;28;20296;-66
2020/12/25 06:22:22;;;;;;;1.57;1.40;;;;;;;4.49;100.00;97676.22;5095002;28;20227;-66
2020/12/25 06:24:51;;;;;;;1.90;1.23;;;;;;;4.48;100.00;97677.38;5094938;28;20204;-66
2020/12/25 06:27:25;;;;;;;1.70;1.60;;;;;;;4.62;100.00;97680.03;5095272;28;20204;-66
2020/12/25 06:29:56;;;;;;;2.43;1.53;;;;;;;4.68;100.00;97684.25;5095648;28;20209;-65
2020/12/25 06:32:23;;;;;;;1.50;1.40;;;;;;;4.68;100.00;97689.72;5096597;28;20233;-65
2020/12/25 06:34:52;;;;;;;1.53;1.30;;;;;;;4.65;100.00;97690.34;5095531;28;20335;-67
2020/12/25 06:37:19;;;;;;;1.33;1.23;;;;;;;4.59;100.00;97694.31;5095445;28;20247;-66
2020/12/25 06:39:53;;;;;;;1.20;1.10;;;;;;;4.77;100.00;97691.41;5095212;28;20646;-67
2020/12/25 06:42:38;;;;;;;1.37;1.20;;;;;;;4.67;100.00;97694.38;5095124;28;20239;-67
2020/12/25 06:45:11;;;;;;;1.20;1.10;;;;;;;4.74;100.00;97696.69;5114575;28;20314;-66
2020/12/25 06:47:39;;;;;;;5.20;3.43;;;;;;;5.06;100.00;97707.34;5115154;28;20204;-66
2020/12/25 06:50:14;;;;;;;1.20;1.10;;;;;;;4.94;100.00;97710.69;5097367;28;20211;-66
2020/12/25 06:53:00;;;;;;;1.20;1.10;;;;;;;4.80;100.00;97720.06;5114879;28;20652;-66
2020/12/25 06:55:42;;;;;;;1.00;1.00;;;;;;;4.77;100.00;97721.47;5114718;28;20230;-65
2020/12/25 06:58:09;;;;;;;1.10;1.00;;;;;;;4.77;100.00;97726.13;5114941;28;20743;-68
2020/12/25 07:00:39;;;;;;;1.20;1.10;;;;;;;4.70;100.00;97723.03;5114905;28;20232;-68
2020/12/25 07:03:19;;;;;;;1.20;1.10;;;;;;;4.83;100.00;97736.66;5096442;28;20660;-67
2020/12/25 07:05:49;;;;;;;1.20;1.10;;;;;;;4.91;100.00;97738.63;5114434;28;20317;-67
2020/12/25 07:08:38;;;;;;;2.20;1.00;;;;;;;4.92;100.00;97742.97;5114633;28;20204;-67
2020/12/25 07:11:09;;;;;;;1.43;1.33;;;;;;;4.98;100.00;97749.13;5114201;28;20713;-67
2020/12/25 07:13:36;;;;;;;1.20;1.10;;;;;;;4.77;100.00;97758.91;5114425;28;20255;-66
2020/12/25 07:16:05;;;;;;;1.20;1.10;;;;;;;4.88;100.00;97761.13;5115343;28;20235;-66
2020/12/25 07:18:32;;;;;;;1.00;0.90;;;;;;;4.92;100.00;97762.13;5116075;28;20304;-66
2020/12/25 07:20:59;;;;;;;1.10;1.00;;;;;;;4.71;100.00;97774.63;5118312;28;20238;-66
2020/12/25 07:23:25;;;;;;;1.47;1.17;;;;;;;4.80;100.00;97770.03;5097453;28;20203;-66
2020/12/25 07:26:02;;;;;;;1.37;1.20;;;;;;;4.84;100.00;97771.06;5114084;28;20311;-68
2020/12/25 07:28:29;;;;;;;1.43;1.17;;;;;;;4.89;100.00;97779.13;5117057;28;20267;-67
2020/12/25 07:30:57;;;;;;;1.03;0.97;;;;;;;4.78;100.00;97776.97;5122679;28;20240;-67
2020/12/25 07:33:23;;;;;;;1.17;1.00;;;;;;;4.92;100.00;97777.72;5113957;28;20219;-67
2020/12/25 07:35:50;;;;;;;1.10;1.00;;;;;;;4.85;100.00;97789.06;5114244;28;20224;-67
2020/12/25 07:38:27;;;;;;;1.20;1.07;;;;;;;4.99;100.00;97789.84;5114149;28;20265;-66
2020/12/25 07:40:53;;;;;;;1.73;1.00;;;;;;;5.05;100.00;97794.03;5113764;28;20760;-66
2020/12/25 07:43:19;;;;;;;1.13;1.00;;;;;;;5.02;100.00;97794.66;5113481;28;20283;-67
2020/12/25 07:45:47;;;;;;;1.90;1.10;;;;;;;5.00;100.00;97807.03;5113988;28;20315;-66
2020/12/25 07:48:18;;;;;;;1.10;1.00;;;;;;;4.96;100.00;97811.53;5096022;28;20294;-66
2020/12/25 07:50:48;;;;;;;1.10;0.90;;;;;;;4.63;100.00;97821.00;5097139;28;20287;-66
2020/12/25 07:53:16;;;;;;;0.90;0.90;;;;;;;4.79;100.00;97823.09;5113433;28;20692;-66
2020/12/25 07:55:47;;;;;;;0.97;0.97;;;;;;;4.94;100.00;97819.22;5113838;28;20310;-66
2020/12/25 07:58:18;;;;;;;1.43;1.20;;;;;;;5.18;100.00;97819.75;5095669;28;20212;-66
2020/12/25 08:00:45;;;;;;;0.97;0.93;;;;;;;5.21;100.00;97813.63;5113817;28;20222;-66
2020/12/25 08:03:13;;;;;;;1.30;1.20;;;;;;;5.31;100.00;97818.84;5113039;28;20207;-66
2020/12/25 08:05:39;;;;;;;2.93;1.83;;;;;;;5.12;100.00;97826.44;5113550;28;20254;-66
2020/12/25 08:08:11;;;;;;;1.43;1.33;;;;;;;5.08;100.00;97834.47;5113523;28;20203;-66
2020/12/25 08:10:37;;;;;;;1.70;1.30;;;;;;;5.21;100.00;97830.06;5113419;28;20635;-66
2020/12/25 08:13:06;;;;;;;1.20;1.10;;;;;;;5.08;100.00;97831.72;5114731;28;20231;-66
2020/12/25 08:15:34;;;;;;;1.87;1.10;;;;;;;5.25;100.00;97842.00;5123115;28;20915;-67
2020/12/25 08:18:03;;;;;;;1.40;1.20;;;;;;;5.21;100.00;97835.53;5113613;28;20214;-66
2020/12/25 08:20:34;;;;;;;1.70;1.60;;;;;;;5.03;100.00;97850.19;5113261;28;20298;-66
2020/12/25 08:23:01;;;;;;;6.10;2.00;;;;;;;5.10;100.00;97853.28;5112480;28;20231;-66
2020/12/25 08:25:32;;;;;;;3.17;1.70;;;;;;;5.13;100.00;97861.69;5113180;28;20230;-66
2020/12/25 08:27:58;;;;;;;1.87;1.77;;;;;;;5.17;100.00;97861.88;5113065;28;20200;-66
2020/12/25 08:30:26;;;;;;;1.87;1.60;;;;;;;5.35;100.00;97854.59;5113017;28;20579;-66
2020/12/25 08:32:56;;;;;;;2.07;1.40;;;;;;;5.31;100.00;97870.03;5112838;28;20228;-66
2020/12/25 08:35:25;;;;;;;1.80;1.40;;;;;;;5.21;100.00;97873.81;5112808;28;20792;-66
2020/12/25 08:38:02;;;;;;;1.77;1.50;;;;;;;5.07;100.00;97878.53;5094989;28;20199;-66
2020/12/25 08:40:34;;;;;;;2.13;1.60;;;;;;;5.30;100.00;97887.56;5112760;28;20728;-66
2020/12/25 08:43:13;;;;;;;1.70;1.57;;;;;;;5.43;100.00;97884.78;5111915;28;20206;-66
2020/12/25 08:45:54;;;;;;;1.60;1.50;;;;;;;5.30;100.00;97893.84;5112607;28;20266;-68
2020/12/25 08:48:21;;;;;;;3.03;2.20;;;;;;;5.20;100.00;97896.00;5112811;28;20231;-67
2020/12/25 08:50:48;;;;;;;3.53;1.93;;;;;;;5.17;100.00;97905.63;5112987;28;20232;-66
2020/12/25 08:53:16;;;;;;;1.53;1.43;;;;;;;5.18;100.00;97905.31;5112323;28;20792;-66
2020/12/25 08:55:47;;;;;;;1.60;1.50;;;;;;;4.96;100.00;97909.94;5112589;28;20720;-66
2020/12/25 08:58:20;;;;;;;1.47;1.37;;;;;;;5.23;100.00;97909.06;5116601;28;20239;-66
2020/12/25 09:00:56;;;;;;;2.17;1.53;;;;;;;5.37;100.00;97910.63;5119619;28;20227;-66
2020/12/25 09:03:22;;;;;;;1.80;1.70;;;;;;;5.35;100.00;97923.00;5117642;28;20282;-67
2020/12/25 09:05:49;;;;;;;2.27;1.63;;;;;;;5.22;100.00;97919.19;5117617;28;20252;-67
2020/12/25 09:08:16;;;;;;;1.57;1.40;;;;;;;5.09;100.00;97917.31;5100455;28;20282;-67
2020/12/25 09:10:44;;;;;;;1.70;1.60;;;;;;;4.93;100.00;97911.34;5112252;28;20204;-67
2020/12/25 09:13:10;;;;;;;1.57;1.47;;;;;;;5.00;100.00;97930.06;5112252;28;20227;-67
2020/12/25 09:15:36;;;;;;;2.47;2.10;;;;;;;4.94;100.00;97934.88;5112512;28;20307;-67
2020/12/25 09:18:02;;;;;;;2.70;2.10;;;;;;;4.95;100.00;97935.66;5112255;28;20204;-67
2020/12/25 09:20:28;;;;;;;2.10;1.87;;;;;;;5.03;100.00;97940.41;5112209;28;20329;-65
2020/12/25 09:22:54;;;;;;;2.10;1.70;;;;;;;5.20;100.00;97940.56;5093872;28;20669;-67
2020/12/25 09:25:20;;;;;;;3.57;2.63;;;;;;;5.39;100.00;97946.72;5111805;28;20591;-67
2020/12/25 09:27:47;;;;;;;3.43;2.50;;;;;;;5.24;100.00;97943.53;5111995;28;20244;-67
2020/12/25 09:30:13;;;;;;;1.90;1.70;;;;;;;5.34;100.00;97946.00;5112064;28;20199;-67
2020/12/25 09:32:39;;;;;;;2.10;1.40;;;;;;;5.33;100.00;97942.47;5112180;28;20258;-67
2020/12/25 09:35:05;;;;;;;1.63;1.47;;;;;;;5.38;100.00;97942.38;5111954;28;20281;-67
2020/12/25 09:37:34;;;;;;;2.17;1.70;;;;;;;5.48;100.00;97939.38;5112173;28;20618;-67
2020/12/25 09:40:00;;;;;;;2.80;2.30;;;;;;;5.38;100.00;97945.09;5111844;28;20738;-66
2020/12/25 09:42:26;;;;;;;1.73;1.43;;;;;;;5.26;100.00;97944.81;5112013;28;20599;-66
2020/12/25 09:44:52;;;;;;;2.70;1.60;;;;;;;5.35;100.00;97948.44;5111630;28;20204;-67
2020/12/25 09:47:19;;;;;;;2.07;1.80;;;;;;;5.31;100.00;97949.38;5112189;28;20203;-67
2020/12/25 09:49:50;;;;;;;1.63;1.40;;;;;;;5.51;100.00;97949.69;5111984;28;20208;-66
2020/12/25 09:52:16;;;;;;;5.10;1.90;;;;;;;5.49;100.00;97951.94;5111954;28;20290;-66
2020/12/25 09:54:42;;;;;;;1.47;1.37;;;;;;;5.58;100.00;97950.09;5113548;28;20273;-67
2020/12/25 09:57:08;;;;;;;2.37;1.50;;;;;;;5.72;100.00;97952.78;5116305;28;20286;-66
2020/12/25 09:59:34;;;;;;;2.00;1.43;;;;;;;5.61;100.00;97949.47;5116041;28;20268;-68
2020/12/25 10:02:00;;;;;;;2.50;1.70;;;;;;;5.75;100.00;97947.47;5116110;28;20664;-66
2020/12/25 10:04:26;;;;;;;1.43;1.10;;;;;;;5.77;100.00;97945.25;5115463;28;20195;-66
2020/12/25 10:06:56;;;;;;;2.83;1.20;;;;;;;5.59;100.00;97945.41;5115894;28;20229;-68
2020/12/25 10:09:22;;;;;;;1.33;1.23;;;;;;;5.71;100.00;97942.97;5115667;28;20258;-68
2020/12/25 10:11:48;;;;;;;1.60;1.03;;;;;;;5.83;100.00;97941.31;5115804;28;20239;-66
2020/12/25 10:14:14;;;;;;;2.57;1.60;;;;;;;6.01;100.00;97942.22;5115403;28;20223;-66
2020/12/25 10:16:40;;;;;;;1.93;1.50;;;;;;;6.29;100.00;97934.66;5115642;28;20228;-66
2020/12/25 10:19:07;;;;;;;1.80;1.20;;;;;;;6.40;100.00;97938.75;5115679;28;20298;-66
2020/12/25 10:21:33;;;;;;;3.80;1.50;;;;;;;6.36;100.00;97937.75;5115624;28;20288;-67
2020/12/25 10:23:59;;;;;;;2.37;1.10;;;;;;;6.06;100.00;97934.69;5114831;28;20270;-66
2020/12/25 10:26:25;;;;;;;1.10;1.00;;;;;;;6.23;100.00;97942.19;5115633;28;20224;-67
2020/12/25 10:28:54;;;;;;;1.73;0.80;;;;;;;6.16;100.00;97939.09;5125807;28;20238;-66
2020/12/25 10:31:20;;;;;;;1.27;1.17;;;;;;;6.33;100.00;97944.69;5118801;28;20245;-66
2020/12/25 10:33:46;;;;;;;2.77;0.90;;;;;;;6.25;100.00;97939.94;5115165;28;20310;-66
2020/12/25 10:36:12;;;;;;;1.07;0.97;;;;;;;6.18;100.00;97948.59;5115331;28;20226;-66
2020/12/25 10:38:38;;;;;;;1.10;1.00;;;;;;;6.17;100.00;97948.91;5115308;28;20207;-66
2020/12/25 10:41:09;;;;;;;1.47;1.00;;;;;;;6.04;100.00;97942.41;5097534;28;20249;-66
2020/12/25 10:43:36;;;;;;;3.03;1.43;;;;;;;6.09;100.00;97945.00;5118001;28;20253;-66
2020/12/25 10:46:05;;;;;;;1.30;1.00;;;;;;;6.22;100.00;97948.00;5124608;28;20224;-67
2020/12/25 10:48:31;;;;;;;2.03;1.30;;;;;;;6.30;100.00;97942.56;5109599;28;20239;-66
2020/12/25 10:51:00;;;;;;;1.30;1.20;;;;;;;6.18;100.00;97941.53;5124132;28;20205;-66
2020/12/25 10:53:26;;;;;;;1.37;0.90;;;;;;;6.23;100.00;97935.91;5096697;28;20277;-66
2020/12/25 10:55:52;;;;;;;1.30;1.13;;;;;;;6.39;100.00;97946.16;5115175;28;20228;-68
2020/12/25 10:58:18;;;;;;;0.90;0.90;;;;;;;6.22;100.00;97953.47;5096980;28;20258;-66
2020/12/25 11:00:44;;;;;;;1.70;0.87;;;;;;;6.46;100.00;97945.72;5114899;28;20281;-67
2020/12/25 11:03:10;;;;;;;1.27;1.00;;;;;;;6.51;100.00;97942.81;5096604;28;20211;-67
2020/12/25 11:05:36;;;;;;;0.70;0.70;;;;;;;6.48;100.00;97940.72;5114243;28;20314;-66
2020/12/25 11:08:03;;;;;;;0.80;0.73;;;;;;;6.36;100.00;97937.75;5114752;28;20675;-66
2020/12/25 11:10:46;;;;;;;1.00;0.90;;;;;;;6.42;100.00;97947.47;5114717;28;20200;-66
2020/12/25 11:13:12;;;;;;;1.33;0.90;;;;;;;6.36;100.00;97935.81;5125005;28;20223;-66
2020/12/25 11:15:41;;;;;;;1.13;1.00;;;;;;;5.88;100.00;97932.97;5127510;28;20576;-68
2020/12/25 11:18:07;;;;;;;1.07;0.97;;;;;;;6.39;100.00;97942.59;5114819;28;20211;-67
2020/12/25 11:20:33;;;;;;;0.93;0.83;;;;;;;6.37;100.00;97942.13;5114746;28;20243;-67
2020/12/25 11:23:00;;;;;;;0.90;0.90;;;;;;;6.44;100.00;97947.97;5079489;28;20228;-65
2020/12/25 11:25:26;;;;;;;0.70;0.70;;;;;;;6.36;100.00;97944.03;5114290;28;20220;-66
2020/12/25 11:27:52;;;;;;;0.80;0.80;;;;;;;6.12;100.00;97938.91;5114239;28;20294;-65
2020/12/25 11:30:20;;;;;;;1.57;0.73;;;;;;;6.19;100.00;97946.69;5114426;28;20253;-65
2020/12/25 11:32:46;;;;;;;1.80;1.00;;;;;;;6.14;100.00;97942.16;5113923;28;20786;-67
2020/12/25 11:35:12;;;;;;;0.73;0.73;;;;;;;6.30;100.00;97944.47;5114463;28;20228;-64
2020/12/25 11:37:39;;;;;;;1.00;0.90;;;;;;;6.58;100.00;97937.69;5096441;28;20339;-65
2020/12/25 11:40:05;;;;;;;1.00;0.90;;;;;;;6.69;100.00;97933.53;5114177;28;20204;-65
2020/12/25 11:42:34;;;;;;;0.70;0.70;;;;;;;6.75;100.00;97935.03;5114280;28;20204;-66
2020/12/25 11:45:03;;;;;;;0.70;0.70;;;;;;;6.62;100.00;97933.19;5113514;28;20700;-66
2020/12/25 11:47:33;;;;;;;1.40;0.80;;;;;;;6.38;100.00;97935.50;5114470;28;20676;-68
2020/12/25 11:49:59;;;;;;;0.50;0.50;;;;;;;6.79;100.00;97938.72;5114186;28;20246;-67
2020/12/25 11:52:31;;;;;;;0.90;0.90;;;;;;;6.38;100.00;97941.00;5115333;28;20291;-67
2020/12/25 11:54:57;;;;;;;1.33;0.87;;;;;;;6.08;100.00;97954.34;5117305;28;20248;-66
2020/12/25 11:57:23;;;;;;;2.10;1.50;;;;;;;5.99;100.00;97956.22;5109695;28;20275;-67
2020/12/25 11:59:49;;;;;;;1.07;0.80;;;;;;;6.01;100.00;97962.22;5132862;28;20232;-67
2020/12/25 12:02:15;;;;;;;1.43;1.00;;;;;;;5.91;100.00;97970.66;5114212;28;20208;-67
2020/12/25 12:04:47;;;;;;;0.97;0.77;;;;;;;6.02;100.00;97961.06;5113183;28;20695;-66
2020/12/25 12:07:15;;;;;;;1.10;1.00;;;;;;;6.56;100.00;97959.13;5113654;28;20382;-66
2020/12/25 12:09:41;;;;;;;2.47;1.10;;;;;;;6.66;100.00;97950.63;5113813;28;20257;-65
2020/12/25 12:12:07;;;;;;;1.10;1.00;;;;;;;6.29;100.00;97960.13;5113776;28;20204;-66